createdAt,value
2018-05-03T00:00:18.201Z,8.60
2018-05-03T00:02:46.421Z,8.60
2018-05-03T00:05:13.980Z,8.60
2018-05-03T00:07:41.439Z,8.60
2018-05-03T00:10:08.929Z,8.60
2018-05-03T00:12:36.402Z,8.50
2018-05-03T00:15:03.877Z,8.50
2018-05-03T00:17:32.136Z,8.50
2018-05-03T00:19:59.583Z,8.40
2018-05-03T00:22:27.048Z,8.50
2018-05-03T00:24:54.520Z,8.40
2018-05-03T00:27:22.733Z,8.40
2018-05-03T00:29:50.213Z,8.40
2018-05-03T00:32:17.685Z,8.30
2018-05-03T00:34:45.156Z,8.30
2018-05-03T00:37:12.605Z,8.30
2018-05-03T00:39:40.072Z,8.30
2018-05-03T00:42:07.540Z,8.20
2018-05-03T00:44:35.756Z,8.20
2018-05-03T00:47:03.236Z,8.20
2018-05-03T00:49:31.449Z,8.20
2018-05-03T00:51:59.661Z,8.10
2018-05-03T00:54:38.973Z,8.10
2018-05-03T00:57:06.419Z,8.10
2018-05-03T00:59:34.693Z,8.10
2018-05-03T01:02:02.169Z,8.00
2018-05-03T01:04:29.612Z,8.00
2018-05-03T01:06:57.100Z,8.00
2018-05-03T01:09:24.564Z,8.00
2018-05-03T01:11:52.043Z,8.00
2018-05-03T01:14:19.490Z,8.00
2018-05-03T01:16:47.713Z,7.90
2018-05-03T01:19:15.193Z,7.90
2018-05-03T01:21:42.637Z,7.90
2018-05-03T01:24:10.131Z,7.90
2018-05-03T01:26:37.605Z,7.90
2018-05-03T01:29:05.077Z,7.80
2018-05-03T01:31:32.515Z,7.80
2018-05-03T01:33:59.984Z,7.80
2018-05-03T01:36:34.349Z,7.80
2018-05-03T01:39:01.812Z,7.70
2018-05-03T01:41:29.289Z,7.70
2018-05-03T01:43:57.520Z,7.70
2018-05-03T01:46:25.768Z,7.70
2018-05-03T01:48:53.219Z,7.60
2018-05-03T01:51:20.940Z,7.60
2018-05-03T01:53:48.424Z,7.60
2018-05-03T01:56:15.885Z,7.60
2018-05-03T01:58:43.356Z,7.60
2018-05-03T02:01:10.812Z,7.60
2018-05-03T02:03:38.294Z,7.50
2018-05-03T02:06:05.768Z,7.50
2018-05-03T02:08:35.062Z,7.50
2018-05-03T02:11:02.625Z,7.50
2018-05-03T02:13:30.107Z,7.50
2018-05-03T02:15:57.581Z,7.40
2018-05-03T02:18:25.041Z,7.40
2018-05-03T02:20:52.497Z,7.40
2018-05-03T02:23:19.971Z,7.40
2018-05-03T02:25:47.424Z,7.40
2018-05-03T02:28:14.904Z,7.40
2018-05-03T02:30:42.364Z,7.30
2018-05-03T02:33:10.602Z,7.30
2018-05-03T02:35:38.058Z,7.30
2018-05-03T02:38:05.517Z,7.30
2018-05-03T02:43:06.778Z,7.30
2018-05-03T02:45:34.221Z,7.20
2018-05-03T02:48:01.659Z,7.20
2018-05-03T02:50:29.105Z,7.20
2018-05-03T02:52:56.545Z,7.20
2018-05-03T02:55:24.756Z,7.20
2018-05-03T02:58:09.666Z,7.10
2018-05-03T03:00:54.821Z,7.20
2018-05-03T03:03:53.417Z,7.10
2018-05-03T03:06:39.257Z,7.10
2018-05-03T03:12:32.231Z,7.10
2018-05-03T03:15:17.269Z,7.10
2018-05-03T03:18:03.044Z,7.10
2018-05-03T03:20:57.588Z,7.00
2018-05-03T03:23:42.710Z,7.00
2018-05-03T03:29:44.084Z,7.00
2018-05-03T03:32:23.303Z,7.00
2018-05-03T03:35:00.385Z,7.00
2018-05-03T03:37:39.545Z,6.90
2018-05-03T03:40:24.752Z,6.90
2018-05-03T03:45:50.664Z,6.90
2018-05-03T03:48:18.151Z,6.90
2018-05-03T03:50:45.577Z,6.80
2018-05-03T03:53:13.079Z,6.80
2018-05-03T03:55:40.487Z,6.80
2018-05-03T03:58:07.945Z,6.80
2018-05-03T04:00:36.175Z,6.70
2018-05-03T04:03:03.613Z,6.70
2018-05-03T04:05:31.079Z,6.70
2018-05-03T04:07:58.561Z,6.70
2018-05-03T04:10:26.019Z,6.70
2018-05-03T04:12:53.455Z,6.70
2018-05-03T04:15:20.921Z,6.70
2018-05-03T04:18:00.138Z,6.80
2018-05-03T04:20:46.225Z,6.80
2018-05-03T04:26:15.173Z,6.90
2018-05-03T04:28:42.631Z,6.90
2018-05-03T04:31:10.087Z,7.00
2018-05-03T04:33:37.545Z,7.00
2018-05-03T04:36:05.765Z,7.10
2018-05-03T04:38:33.320Z,7.10
2018-05-03T04:41:00.778Z,7.20
2018-05-03T04:43:28.257Z,7.30
2018-05-03T04:45:55.716Z,7.40
2018-05-03T04:48:23.157Z,7.50
2018-05-03T04:50:50.621Z,7.60
2018-05-03T04:53:18.066Z,7.70
2018-05-03T04:55:45.528Z,7.90
2018-05-03T04:58:12.967Z,8.00
2018-05-03T05:00:40.429Z,8.10
2018-05-03T05:03:07.878Z,8.30
2018-05-03T05:05:35.343Z,8.50
2018-05-03T05:08:02.793Z,8.70
2018-05-03T05:10:30.291Z,8.90
2018-05-03T05:12:57.715Z,9.10
2018-05-03T05:15:25.176Z,9.20
2018-05-03T05:17:52.723Z,9.40
2018-05-03T05:20:20.107Z,9.60
2018-05-03T05:22:47.540Z,9.70
2018-05-03T05:25:14.992Z,9.90
2018-05-03T05:27:42.477Z,10.00
2018-05-03T05:30:09.921Z,10.10
2018-05-03T05:32:37.400Z,10.20
2018-05-03T05:35:04.829Z,10.30
2018-05-03T05:37:32.328Z,10.30
2018-05-03T05:39:59.768Z,10.30
2018-05-03T05:42:27.204Z,10.40
2018-05-03T05:44:54.676Z,10.40
2018-05-03T05:47:22.119Z,10.50
2018-05-03T05:49:49.573Z,10.50
2018-05-03T05:52:17.033Z,10.60
2018-05-03T05:54:44.492Z,10.60
2018-05-03T05:57:11.953Z,10.70
2018-05-03T05:59:40.185Z,10.70
2018-05-03T06:02:07.629Z,10.70
2018-05-03T06:04:35.869Z,10.80
2018-05-03T06:07:03.329Z,10.70
2018-05-03T06:09:30.769Z,10.70
2018-05-03T06:11:58.233Z,10.70
2018-05-03T06:14:25.674Z,10.70
2018-05-03T06:16:53.124Z,10.70
2018-05-03T06:19:20.566Z,10.70
2018-05-03T06:21:48.040Z,10.80
2018-05-03T06:24:15.500Z,10.80
2018-05-03T06:26:43.725Z,10.80
2018-05-03T06:29:11.251Z,10.70
2018-05-03T06:31:38.736Z,10.80
2018-05-03T06:34:06.164Z,10.80
2018-05-03T06:36:33.637Z,10.90
2018-05-03T06:39:01.082Z,10.90
2018-05-03T06:41:28.721Z,11.00
2018-05-03T06:43:56.301Z,11.00
2018-05-03T06:46:23.764Z,11.00
2018-05-03T06:48:51.213Z,11.00
2018-05-03T06:51:18.701Z,11.00
2018-05-03T06:53:46.133Z,11.10
2018-05-03T06:56:13.614Z,11.10
2018-05-03T06:58:41.065Z,11.10
2018-05-03T07:01:08.505Z,11.20
2018-05-03T07:03:35.974Z,11.20
2018-05-03T07:06:03.417Z,11.30
2018-05-03T07:08:30.873Z,11.40
2018-05-03T07:10:58.329Z,11.40
2018-05-03T07:13:25.812Z,11.40
2018-05-03T07:15:53.260Z,11.50
2018-05-03T07:18:20.706Z,11.50
2018-05-03T07:20:48.164Z,11.50
2018-05-03T07:23:15.638Z,11.60
2018-05-03T07:25:43.074Z,11.60
2018-05-03T07:28:10.534Z,11.70
2018-05-03T07:30:37.989Z,11.70
2018-05-03T07:33:05.464Z,11.70
2018-05-03T07:35:32.926Z,11.80
2018-05-03T07:38:00.376Z,11.90
2018-05-03T07:40:27.821Z,11.90
2018-05-03T07:42:55.276Z,12.00
2018-05-03T07:45:22.721Z,12.00
2018-05-03T07:47:50.190Z,12.10
2018-05-03T07:50:17.667Z,12.20
2018-05-03T07:52:45.116Z,12.30
2018-05-03T07:55:12.563Z,12.40
2018-05-03T07:57:40.022Z,12.50
2018-05-03T08:00:07.501Z,12.50
2018-05-03T08:02:35.737Z,12.90
2018-05-03T08:05:03.197Z,12.80
2018-05-03T08:07:30.654Z,13.00
2018-05-03T08:09:58.144Z,13.20
2018-05-03T08:12:25.582Z,13.20
2018-05-03T08:14:53.050Z,13.40
2018-05-03T08:17:20.492Z,13.50
2018-05-03T08:19:47.985Z,13.50
2018-05-03T08:22:16.277Z,13.60
2018-05-03T08:24:43.655Z,13.60
2018-05-03T08:27:11.165Z,13.70
2018-05-03T08:29:38.646Z,13.80
2018-05-03T08:32:06.081Z,14.00
2018-05-03T08:34:34.304Z,14.30
2018-05-03T08:37:01.774Z,14.30
2018-05-03T08:39:29.218Z,14.50
2018-05-03T08:41:56.685Z,14.70
2018-05-03T08:44:24.144Z,14.90
2018-05-03T08:46:51.629Z,15.30
2018-05-03T08:49:19.085Z,15.60
2018-05-03T08:51:46.548Z,16.00
2018-05-03T08:54:13.972Z,16.40
2018-05-03T08:56:41.533Z,16.70
2018-05-03T08:59:08.996Z,17.00
2018-05-03T09:01:36.731Z,17.40
2018-05-03T09:04:04.109Z,17.80
2018-05-03T09:06:31.554Z,18.20
2018-05-03T09:08:59.048Z,18.50
2018-05-03T09:11:26.581Z,18.70
2018-05-03T09:13:54.073Z,18.90
2018-05-03T09:16:21.517Z,19.20
2018-05-03T09:18:50.489Z,19.80
2018-05-03T09:21:18.050Z,19.80
2018-05-03T09:23:45.521Z,19.90
2018-05-03T09:26:13.744Z,20.10
2018-05-03T09:28:41.253Z,20.00
2018-05-03T09:31:08.730Z,20.20
2018-05-03T09:33:36.928Z,20.60
2018-05-03T09:36:04.379Z,20.60
2018-05-03T09:38:31.812Z,20.90
2018-05-03T09:40:59.349Z,21.20
2018-05-03T09:43:26.825Z,21.40
2018-05-03T09:45:54.441Z,21.50
2018-05-03T09:48:21.941Z,21.60
2018-05-03T09:50:49.485Z,21.70
2018-05-03T09:53:17.080Z,21.70
2018-05-03T09:55:44.529Z,21.40
2018-05-03T09:58:11.996Z,21.30
2018-05-03T10:00:40.228Z,21.30
2018-05-03T10:03:07.694Z,21.40
2018-05-03T10:05:35.193Z,21.40
2018-05-03T10:08:03.401Z,21.70
2018-05-03T10:10:30.834Z,21.70
2018-05-03T10:12:59.065Z,21.50
2018-05-03T10:15:26.558Z,21.50
2018-05-03T10:17:54.899Z,21.10
2018-05-03T10:20:22.387Z,21.10
2018-05-03T10:22:49.832Z,21.20
2018-05-03T10:25:17.277Z,21.30
2018-05-03T10:27:44.794Z,21.30
2018-05-03T10:30:12.286Z,21.60
2018-05-03T10:32:40.447Z,22.20
2018-05-03T10:35:07.884Z,22.20
2018-05-03T10:37:35.386Z,22.30
2018-05-03T10:40:02.873Z,22.30
2018-05-03T10:42:30.486Z,22.30
2018-05-03T10:44:57.924Z,22.30
2018-05-03T10:47:25.396Z,22.50
2018-05-03T10:49:52.933Z,22.40
2018-05-03T10:52:20.402Z,22.20
2018-05-03T10:54:47.881Z,22.30
2018-05-03T10:57:15.329Z,22.10
2018-05-03T10:59:42.788Z,22.10
2018-05-03T11:02:10.252Z,21.90
2018-05-03T11:04:37.812Z,21.80
2018-05-03T11:07:05.269Z,22.00
2018-05-03T11:09:32.848Z,21.90
2018-05-03T11:12:00.345Z,21.90
2018-05-03T11:14:27.869Z,21.80
2018-05-03T11:16:55.361Z,21.60
2018-05-03T11:19:22.859Z,21.40
2018-05-03T11:21:50.281Z,21.30
2018-05-03T11:24:18.504Z,21.10
2018-05-03T11:26:45.949Z,21.00
2018-05-03T11:29:13.426Z,20.90
2018-05-03T11:31:40.990Z,20.70
2018-05-03T11:34:08.540Z,20.50
2018-05-03T11:36:36.111Z,20.40
2018-05-03T11:39:04.396Z,20.60
2018-05-03T11:41:31.866Z,20.60
2018-05-03T11:44:00.113Z,20.20
2018-05-03T11:46:27.811Z,20.10
2018-05-03T11:48:55.841Z,20.20
2018-05-03T11:51:24.049Z,21.20
2018-05-03T11:53:51.501Z,21.20
2018-05-03T11:56:18.972Z,21.50
2018-05-03T11:58:46.422Z,21.60
2018-05-03T12:01:13.861Z,21.90
2018-05-03T12:03:41.316Z,22.00
2018-05-03T12:06:08.753Z,22.10
2018-05-03T12:08:36.221Z,21.90
2018-05-03T12:11:03.665Z,21.70
2018-05-03T12:13:31.121Z,21.60
2018-05-03T12:15:59.007Z,21.60
2018-05-03T12:18:26.448Z,21.50
2018-05-03T12:20:53.913Z,21.60
2018-05-03T12:23:21.364Z,21.90
2018-05-03T12:25:48.848Z,22.00
2018-05-03T12:28:16.292Z,21.90
2018-05-03T12:30:43.756Z,22.10
2018-05-03T12:33:11.272Z,22.30
2018-05-03T12:35:38.761Z,22.60
2018-05-03T12:38:06.299Z,22.80
2018-05-03T12:40:33.878Z,23.00
2018-05-03T12:43:01.343Z,23.10
2018-05-03T12:45:28.779Z,23.30
2018-05-03T12:47:56.245Z,23.60
2018-05-03T12:50:23.693Z,23.80
2018-05-03T12:52:51.301Z,24.10
2018-05-03T12:55:19.646Z,23.80
2018-05-03T12:57:47.304Z,23.80
2018-05-03T13:00:14.747Z,23.50
2018-05-03T13:02:42.204Z,23.60
2018-05-03T13:05:10.892Z,23.70
2018-05-03T13:07:38.358Z,23.90
2018-05-03T13:10:05.812Z,23.90
2018-05-03T13:12:33.254Z,24.10
2018-05-03T13:15:00.728Z,24.30
2018-05-03T13:17:28.174Z,24.50
2018-05-03T13:19:56.324Z,24.60
2018-05-03T13:22:25.297Z,24.60
2018-05-03T13:24:56.341Z,24.60
2018-05-03T13:27:26.152Z,24.40
2018-05-03T13:30:05.078Z,24.20
2018-05-03T13:32:34.223Z,24.10
2018-05-03T13:35:01.770Z,24.00
2018-05-03T13:37:29.225Z,23.70
2018-05-03T13:39:56.809Z,23.60
2018-05-03T13:42:24.266Z,23.70
2018-05-03T13:44:52.520Z,23.80
2018-05-03T13:47:20.011Z,24.00
2018-05-03T13:49:47.426Z,24.30
2018-05-03T13:52:14.863Z,24.60
2018-05-03T13:54:42.323Z,24.70
2018-05-03T13:57:09.829Z,24.50
2018-05-03T13:59:37.313Z,24.20
2018-05-03T14:02:04.938Z,24.20
2018-05-03T14:04:32.405Z,24.30
2018-05-03T14:06:59.864Z,24.60
2018-05-03T14:09:27.309Z,24.80
2018-05-03T14:11:55.743Z,25.00
2018-05-03T14:14:23.966Z,24.80
2018-05-03T14:16:51.539Z,24.80
2018-05-03T14:19:19.041Z,24.70
2018-05-03T14:21:46.445Z,24.30
2018-05-03T14:24:13.909Z,23.70
2018-05-03T14:26:41.357Z,23.00
2018-05-03T14:29:08.824Z,22.60
2018-05-03T14:31:36.294Z,22.60
2018-05-03T14:34:03.753Z,22.60
2018-05-03T14:36:31.210Z,22.40
2018-05-03T14:38:59.440Z,21.60
2018-05-03T14:41:26.929Z,21.50
2018-05-03T14:43:54.365Z,21.10
2018-05-03T14:46:21.840Z,20.70
2018-05-03T14:48:49.289Z,20.10
2018-05-03T14:51:16.723Z,19.70
2018-05-03T14:53:44.294Z,19.40
2018-05-03T14:56:11.726Z,19.00
2018-05-03T14:58:39.160Z,18.60
2018-05-03T15:01:06.628Z,18.30
2018-05-03T15:03:34.075Z,18.10
2018-05-03T15:06:02.321Z,17.70
2018-05-03T15:08:29.785Z,17.60
2018-05-03T15:10:57.232Z,17.60
2018-05-03T15:13:24.688Z,17.40
2018-05-03T15:15:52.147Z,17.30
2018-05-03T15:18:19.597Z,17.10
2018-05-03T15:20:47.025Z,17.00
2018-05-03T15:23:14.513Z,16.90
2018-05-03T15:25:41.953Z,16.90
2018-05-03T15:28:09.407Z,16.80
2018-05-03T15:30:36.885Z,16.80
2018-05-03T15:33:05.105Z,16.60
2018-05-03T15:35:32.571Z,16.50
2018-05-03T15:38:00.807Z,16.30
2018-05-03T15:40:28.270Z,16.30
2018-05-03T15:42:55.733Z,16.20
2018-05-03T15:45:24.005Z,16.10
2018-05-03T15:47:51.469Z,16.00
2018-05-03T15:50:18.996Z,16.10
2018-05-03T15:52:46.372Z,16.10
2018-05-03T15:55:13.815Z,16.10
2018-05-03T15:57:41.280Z,16.10
2018-05-03T16:00:08.732Z,15.90
2018-05-03T16:02:36.206Z,15.80
2018-05-03T16:05:03.665Z,15.80
2018-05-03T16:07:31.156Z,15.70
2018-05-03T16:09:58.585Z,15.60
2018-05-03T16:12:26.053Z,15.50
2018-05-03T16:14:53.513Z,15.40
2018-05-03T16:17:20.977Z,15.30
2018-05-03T16:19:49.225Z,15.20
2018-05-03T16:22:16.681Z,15.20
2018-05-03T16:24:44.139Z,15.10
2018-05-03T16:27:11.667Z,15.10
2018-05-03T16:29:39.065Z,15.00
2018-05-03T16:32:06.529Z,15.00
2018-05-03T16:34:34.030Z,14.90
2018-05-03T16:37:01.429Z,14.90
2018-05-03T16:39:28.891Z,14.80
2018-05-03T16:41:56.340Z,14.70
2018-05-03T16:44:23.788Z,14.70
2018-05-03T16:46:51.291Z,14.60
2018-05-03T16:49:18.772Z,14.50
2018-05-03T16:51:46.216Z,14.50
2018-05-03T16:54:13.717Z,14.40
2018-05-03T16:56:41.095Z,14.40
2018-05-03T16:59:08.534Z,14.30
2018-05-03T17:01:36.018Z,14.30
2018-05-03T17:04:03.485Z,14.20
2018-05-03T17:06:31.734Z,14.10
2018-05-03T17:08:59.552Z,14.10
2018-05-03T17:11:26.989Z,14.10
2018-05-03T17:13:54.476Z,14.00
2018-05-03T17:16:21.901Z,14.00
2018-05-03T17:18:49.366Z,14.00
2018-05-03T17:21:16.815Z,13.90
2018-05-03T17:23:44.289Z,13.90
2018-05-03T17:26:12.500Z,13.70
2018-05-03T17:28:39.955Z,13.70
2018-05-03T17:31:07.417Z,13.70
2018-05-03T17:33:34.877Z,13.60
2018-05-03T17:36:02.538Z,13.50
2018-05-03T17:38:29.954Z,13.40
2018-05-03T17:40:57.424Z,13.40
2018-05-03T17:43:25.623Z,13.30
2018-05-03T17:45:53.116Z,13.30
2018-05-03T17:48:20.572Z,13.20
2018-05-03T17:50:48.016Z,13.20
2018-05-03T17:53:15.501Z,13.20
2018-05-03T17:55:42.944Z,13.10
2018-05-03T17:58:10.401Z,13.10
2018-05-03T18:00:37.864Z,13.00
2018-05-03T18:03:05.337Z,13.00
2018-05-03T18:05:32.777Z,12.90
2018-05-03T18:08:00.250Z,12.80
2018-05-03T18:10:27.705Z,12.80
2018-05-03T18:12:55.934Z,12.60
2018-05-03T18:15:23.397Z,12.60
2018-05-03T18:17:50.857Z,12.50
2018-05-03T18:20:18.329Z,12.40
2018-05-03T18:22:45.770Z,12.40
2018-05-03T18:25:13.232Z,12.30
2018-05-03T18:27:40.707Z,12.20
2018-05-03T18:30:08.169Z,12.10
2018-05-03T18:32:35.624Z,12.10
2018-05-03T18:35:03.097Z,12.00
2018-05-03T18:37:30.533Z,11.90
2018-05-03T18:39:57.969Z,11.80
2018-05-03T18:42:25.507Z,11.70
2018-05-03T18:44:52.861Z,11.70
2018-05-03T18:47:20.332Z,11.60
2018-05-03T18:49:47.916Z,11.50
2018-05-03T18:52:15.225Z,11.40
2018-05-03T18:54:42.726Z,11.30
2018-05-03T18:57:10.162Z,11.20
2018-05-03T18:59:37.957Z,11.10
2018-05-03T19:02:05.405Z,11.00
2018-05-03T19:04:32.877Z,10.90
2018-05-03T19:07:00.304Z,10.80
2018-05-03T19:09:27.755Z,10.70
2018-05-03T19:11:55.299Z,10.60
2018-05-03T19:14:22.737Z,10.60
2018-05-03T19:16:50.167Z,10.50
2018-05-03T19:19:18.361Z,10.30
2018-05-03T19:21:46.585Z,10.20
2018-05-03T19:24:14.089Z,10.20
2018-05-03T19:26:42.296Z,10.10
2018-05-03T19:29:11.105Z,10.00
2018-05-03T19:31:38.577Z,10.00
2018-05-03T19:34:06.031Z,9.90
2018-05-03T19:36:33.504Z,9.90
2018-05-03T19:39:01.740Z,9.70
2018-05-03T19:41:29.153Z,9.70
2018-05-03T19:43:56.609Z,9.70
2018-05-03T19:46:24.860Z,9.50
2018-05-03T19:48:52.318Z,9.50
2018-05-03T19:51:19.756Z,9.40
2018-05-03T19:53:47.216Z,9.40
2018-05-03T19:56:14.647Z,9.40
2018-05-03T19:58:42.137Z,9.30
2018-05-03T20:01:09.587Z,9.20
2018-05-03T20:03:37.024Z,9.10
2018-05-03T20:06:04.466Z,9.10
2018-05-03T20:08:31.918Z,9.00
2018-05-03T20:10:59.365Z,9.00
2018-05-03T20:13:26.817Z,8.90
2018-05-03T20:15:54.273Z,8.90
2018-05-03T20:18:21.721Z,8.80
2018-05-03T20:20:49.204Z,8.80
2018-05-03T20:23:16.635Z,8.70
2018-05-03T20:25:44.852Z,8.60
2018-05-03T20:28:12.286Z,8.60
2018-05-03T20:30:39.716Z,8.50
2018-05-03T20:33:07.183Z,8.50
2018-05-03T20:35:35.386Z,8.40
2018-05-03T20:38:02.832Z,8.40
2018-05-03T20:40:30.265Z,8.30
2018-05-03T20:42:58.508Z,8.20
2018-05-03T20:45:25.972Z,8.20
2018-05-03T20:47:53.426Z,8.20
2018-05-03T20:50:20.927Z,8.10
2018-05-03T20:52:49.605Z,8.00
2018-05-03T20:55:17.798Z,8.00
2018-05-03T20:57:45.246Z,7.90
2018-05-03T21:00:12.691Z,7.90
2018-05-03T21:02:40.880Z,7.70
2018-05-03T21:05:08.322Z,7.70
2018-05-03T21:07:36.568Z,7.60
2018-05-03T21:10:04.029Z,7.60
2018-05-03T21:12:31.526Z,7.60
2018-05-03T21:14:58.935Z,7.50
2018-05-03T21:17:26.361Z,7.50
2018-05-03T21:19:53.818Z,7.40
2018-05-03T21:22:21.253Z,7.40
2018-05-03T21:24:48.729Z,7.30
2018-05-03T21:27:16.182Z,7.30
2018-05-03T21:29:43.608Z,7.30
2018-05-03T21:32:11.049Z,7.20
2018-05-03T21:34:38.552Z,7.10
2018-05-03T21:37:06.017Z,7.10
2018-05-03T21:39:33.473Z,7.00
2018-05-03T21:42:00.925Z,7.00
2018-05-03T21:44:28.377Z,6.90
2018-05-03T21:46:55.857Z,6.80
2018-05-03T21:49:23.289Z,6.80
2018-05-03T21:51:50.751Z,6.80
2018-05-03T21:54:18.213Z,6.80
2018-05-03T21:56:45.675Z,6.70
2018-05-03T21:59:13.093Z,6.60
2018-05-03T22:01:40.553Z,6.60
2018-05-03T22:04:08.088Z,6.60
2018-05-03T22:06:35.558Z,6.50
2018-05-03T22:09:03.772Z,6.40
2018-05-03T22:11:31.228Z,6.40
2018-05-03T22:13:58.747Z,6.40
2018-05-03T22:16:26.116Z,6.40
2018-05-03T22:18:53.573Z,6.30
2018-05-03T22:21:21.033Z,6.20
2018-05-03T22:23:48.489Z,6.20
2018-05-03T22:26:15.979Z,6.20
2018-05-03T22:28:43.548Z,6.10
2018-05-03T22:31:11.012Z,6.10
2018-05-03T22:33:38.445Z,6.00
2018-05-03T22:36:05.885Z,5.90
2018-05-03T22:38:33.329Z,5.90
2018-05-03T22:41:00.777Z,5.90
2018-05-03T22:43:28.239Z,5.90
2018-05-03T22:45:55.697Z,5.80
2018-05-03T22:48:23.137Z,5.70
2018-05-03T22:50:51.357Z,5.60
2018-05-03T22:53:18.812Z,5.60
2018-05-03T22:55:46.286Z,5.60
2018-05-03T22:58:13.726Z,5.50
2018-05-03T23:00:41.152Z,5.50
2018-05-03T23:03:08.611Z,5.50
2018-05-03T23:05:36.092Z,5.50
2018-05-03T23:08:03.524Z,5.40
2018-05-03T23:10:31.006Z,5.40
2018-05-03T23:12:58.459Z,5.40
2018-05-03T23:15:25.897Z,5.30
2018-05-03T23:17:53.372Z,5.30
2018-05-03T23:20:20.806Z,5.30
2018-05-03T23:22:49.027Z,5.20
2018-05-03T23:25:16.472Z,5.20
2018-05-03T23:27:43.914Z,5.20
2018-05-03T23:30:11.372Z,5.20
2018-05-03T23:32:38.821Z,5.10
2018-05-03T23:35:06.305Z,5.00
2018-05-03T23:37:33.742Z,5.00
2018-05-03T23:40:01.204Z,5.00
2018-05-03T23:42:28.654Z,4.90
2018-05-03T23:44:56.099Z,4.90
2018-05-03T23:47:23.548Z,4.90
2018-05-03T23:49:51.005Z,4.90
2018-05-03T23:52:18.456Z,4.80
2018-05-03T23:54:46.660Z,4.70
2018-05-03T23:57:14.086Z,4.70
2018-05-03T23:59:42.301Z,4.70
